Tuesday, April 24, 2018, 8:56 PM EDT
Back to Local

K1V4, St Johnsbury Fairbanks

Location: Saint Johnsbury, VT, United States Lat: 44.417
Local Time: 8:56 PM EDT ( 0:56 GMT) Lon: -72.017
Time Zone: US/Eastern Elev: 695 ft

Show me the last for .
Show Coded

Time T Td Feel RH Dir Speed Gust Alt SLP Vis Weather Sky Remarks
2018-04-24 19:54 64 23 - 20 - - - 30.11 30.11 0 6-hr Min Temp (8pm): 64.0°F
6-hr Max Temp (8pm): 73.0°F
2018-04-24 18:54 66 23 - 19 - - - 30.11 30.12 0 None
2018-04-24 17:54 68 23 - 18 - - - 30.12 30.12 0 None
2018-04-24 16:54 68 24 - 18 - - - 30.13 30.13 0 None
2018-04-24 15:54 71 25 - 17 - - - 30.14 30.14 0 None
2018-04-24 14:54 71 23 - 16 - - - 30.15 30.15 0 None
2018-04-24 13:54 69 22 - 16 - - - 30.18 30.18 0 6-hr Min Temp (2pm): 33.1°F
6-hr Max Temp (2pm): 69.1°F
2018-04-24 12:54 68 19 - 15 - - - 30.21 30.21 0 None
2018-04-24 11:54 66 27 - 22 - - - 30.24 30.24 0 None
2018-04-24 10:54 61 27 - 27 - - - 30.28 30.28 0 None
2018-04-24 09:54 55 26 - 32 - - - 30.30 30.30 0 None
2018-04-24 08:54 44 26 - 48 - - - 30.32 30.33 0 None
2018-04-24 07:54 33 26 - 75 - - - 30.33 30.34 0 6-hr Min Temp (8am): 28.9°F
6-hr Max Temp (8am): 33.1°F
2018-04-24 06:54 30 25 - 81 - - - 30.33 30.34 0 None
2018-04-24 05:54 29 25 - 84 - - - 30.32 30.33 0 None
2018-04-24 04:54 29 25 - 84 - - - 30.32 30.32 0 None
2018-04-24 03:54 30 25 - 81 - - - 30.32 30.33 0 None
2018-04-24 02:54 31 26 - 81 - - - 30.32 30.33 0 None
2018-04-24 01:54 32 27 - 81 - - - 30.32 30.33 0 6-hr Min Temp (2am): 32.0°F
6-hr Max Temp (2am): 57.0°F
2018-04-24 00:54 34 26 - 72 - - - 30.32 30.33 0 24-hr Min Temp (1am): 25.0°F
24-hr Max Temp (1am): 66.0°F
2018-04-23 23:54 36 25 - 63 - - - 30.32 30.33 0 None
2018-04-23 22:54 39 26 - 59 - - - 30.32 30.33 0 None
2018-04-23 21:54 42 26 - 52 - - - 30.33 30.34 0 None

Support USWX by starting your Amazon purchase here.